Time;durP1;ratioP1;P1;durP2;ratioP2;P2;SDS_P1;SDS_P2;PMS_P1;PMS_P2;Temp;Humidity;BMP_temperature;BMP_pressure;BME280_temperature;BME280_humidity;BME280_pressure;Samples;Min_cycle;Max_cycle;Signal;HPM_P1;HPM_P2
2021/09/18 00:01:26;;;;;;;3.80;1.70;;;;;;;12.64;93.95;101371.97;4904153;29;20126;-81
2021/09/18 00:03:51;;;;;;;2.70;1.92;;;;;;;12.64;94.10;101371.97;4884808;29;20734;-80
2021/09/18 00:06:17;;;;;;;3.75;1.80;;;;;;;12.77;93.50;101367.31;4907111;29;20028;-81
2021/09/18 00:08:42;;;;;;;2.10;1.55;;;;;;;12.72;93.57;101362.66;4905824;29;20584;-81
2021/09/18 00:11:08;;;;;;;3.05;1.75;;;;;;;12.76;93.20;101371.88;4906264;29;20039;-81
2021/09/18 00:13:33;;;;;;;3.38;1.88;;;;;;;12.60;94.07;101380.78;4905721;29;20028;-81
2021/09/18 00:16:00;;;;;;;2.45;1.98;;;;;;;12.66;94.25;101371.72;4920365;29;20029;-81
2021/09/18 00:18:25;;;;;;;3.38;2.00;;;;;;;12.66;94.22;101385.97;4887802;29;20051;-81
2021/09/18 00:20:51;;;;;;;2.85;1.80;;;;;;;12.74;93.52;101384.72;4886547;29;20390;-81
2021/09/18 00:23:17;;;;;;;2.28;1.98;;;;;;;12.68;93.42;101383.03;4882846;29;20051;-82
2021/09/18 00:25:42;;;;;;;2.58;1.67;;;;;;;12.63;93.66;101389.16;4922181;29;20056;-81
2021/09/18 00:28:08;;;;;;;2.70;2.10;;;;;;;12.70;93.56;101384.41;4883252;29;20036;-81
2021/09/18 00:30:34;;;;;;;4.18;2.05;;;;;;;12.54;94.20;101384.44;4904914;29;20040;-81
2021/09/18 00:33:01;;;;;;;4.35;2.08;;;;;;;12.63;94.45;101389.16;4885952;29;20035;-81
2021/09/18 00:35:27;;;;;;;4.40;2.15;;;;;;;12.65;93.84;101384.34;4883466;29;20043;-81
2021/09/18 00:37:52;;;;;;;2.83;1.80;;;;;;;12.73;93.38;101385.78;4918574;29;20036;-81
2021/09/18 00:40:18;;;;;;;2.50;1.92;;;;;;;12.70;93.65;101380.91;4886098;29;20067;-81
2021/09/18 00:42:43;;;;;;;4.60;2.00;;;;;;;12.62;93.40;101384.84;4886003;29;20084;-80
2021/09/18 00:45:09;;;;;;;3.42;2.15;;;;;;;12.64;93.57;101387.28;4904690;29;20024;-81
2021/09/18 00:47:35;;;;;;;4.07;2.13;;;;;;;12.63;93.82;101385.66;4889404;29;20020;-81
2021/09/18 00:50:00;;;;;;;3.00;2.13;;;;;;;12.65;94.20;101383.53;4888455;29;20416;-81
2021/09/18 00:52:27;;;;;;;4.07;2.20;;;;;;;12.66;93.91;101385.16;4889336;29;20028;-80
2021/09/18 00:54:53;;;;;;;3.38;2.55;;;;;;;12.68;93.91;101380.34;4899111;29;20611;-81
2021/09/18 00:57:19;;;;;;;4.60;2.70;;;;;;;12.67;93.94;101392.16;4905976;29;20059;-80
2021/09/18 00:59:45;;;;;;;2.80;2.40;;;;;;;12.62;94.37;101386.72;4905727;29;20090;-82
2021/09/18 01:02:11;;;;;;;2.92;2.40;;;;;;;12.65;94.45;101388.91;4906774;29;20032;-82
2021/09/18 01:04:38;;;;;;;5.25;2.70;;;;;;;12.70;93.77;101386.28;4904471;29;20032;-82
2021/09/18 01:07:05;;;;;;;6.05;3.75;;;;;;;12.60;94.84;101391.53;4919229;29;20087;-82
2021/09/18 01:09:31;;;;;;;7.35;2.95;;;;;;;12.67;94.96;101382.22;4884612;29;20032;-82
2021/09/18 01:11:57;;;;;;;4.13;3.33;;;;;;;12.73;94.59;101393.03;4887804;29;20559;-82
2021/09/18 01:14:23;;;;;;;5.00;3.08;;;;;;;12.64;95.23;101385.41;4888745;29;20034;-82
2021/09/18 01:16:49;;;;;;;4.82;2.88;;;;;;;12.65;95.01;101383.53;4889463;29;20036;-82
2021/09/18 01:19:14;;;;;;;10.48;3.33;;;;;;;12.66;95.25;101380.59;4887327;29;20032;-82
2021/09/18 01:21:40;;;;;;;6.38;3.17;;;;;;;12.63;95.35;101380.28;4903936;29;20043;-82
2021/09/18 01:24:06;;;;;;;4.20;3.38;;;;;;;12.60;95.80;101386.97;4886321;29;20079;-82
2021/09/18 01:26:38;;;;;;;6.45;3.58;;;;;;;12.66;95.31;101377.09;4888249;29;20028;-82
2021/09/18 01:29:06;;;;;;;5.68;3.30;;;;;;;12.59;96.10;101376.47;4903667;29;20942;-82
2021/09/18 01:31:40;;;;;;;6.88;3.83;;;;;;;12.61;95.97;101371.66;4919363;29;20036;-81
2021/09/18 01:34:06;;;;;;;5.60;3.88;;;;;;;12.69;95.37;101371.22;4904190;29;20035;-82
2021/09/18 01:36:35;;;;;;;5.00;3.60;;;;;;;12.72;95.45;101368.03;4902131;29;20096;-82
2021/09/18 01:39:01;;;;;;;6.20;4.15;;;;;;;12.58;96.29;101369.47;4919359;29;20043;-81
2021/09/18 01:41:28;;;;;;;9.60;3.97;;;;;;;12.60;96.47;101370.03;4883468;29;20036;-82
2021/09/18 01:43:53;;;;;;;4.93;3.50;;;;;;;12.65;96.34;101372.78;4898517;29;20046;-82
2021/09/18 01:46:19;;;;;;;6.85;4.20;;;;;;;12.68;96.25;101369.59;4888756;29;20019;-82
2021/09/18 01:48:44;;;;;;;6.28;4.40;;;;;;;12.53;97.16;101374.72;4902896;29;22004;-82
2021/09/18 01:51:14;;;;;;;7.03;4.43;;;;;;;12.53;96.64;101374.72;4883521;29;20530;-82
2021/09/18 01:53:40;;;;;;;5.97;3.83;;;;;;;12.61;96.89;101377.03;4903907;29;20036;-82
2021/09/18 01:56:06;;;;;;;6.38;4.15;;;;;;;12.78;95.56;101369.75;4915114;29;20043;-82
2021/09/18 01:58:31;;;;;;;8.15;4.80;;;;;;;12.55;96.57;101375.31;4917704;29;20692;-82
2021/09/18 02:01:03;;;;;;;8.48;5.22;;;;;;;12.52;97.22;101368.53;4884399;29;20056;-82
2021/09/18 02:03:29;;;;;;;7.72;4.80;;;;;;;12.62;97.05;101367.91;4918689;29;20133;-82
2021/09/18 02:05:55;;;;;;;7.63;4.50;;;;;;;12.67;96.80;101370.66;4903484;29;20686;-82
2021/09/18 02:08:21;;;;;;;7.28;4.45;;;;;;;12.62;96.87;101373.28;4886504;29;20118;-82
2021/09/18 02:10:47;;;;;;;7.55;5.63;;;;;;;12.71;96.46;101379.84;4883762;29;20561;-81
2021/09/18 02:13:13;;;;;;;9.00;4.90;;;;;;;12.70;96.44;101376.34;4888180;29;20036;-81
2021/09/18 02:15:39;;;;;;;8.65;4.88;;;;;;;12.75;96.50;101378.31;4880655;29;20032;-82
2021/09/18 02:18:05;;;;;;;6.95;4.50;;;;;;;12.83;95.81;101369.81;4904025;29;20042;-81
2021/09/18 02:20:33;;;;;;;10.57;5.18;;;;;;;12.70;96.53;101365.59;4887578;29;20043;-81
2021/09/18 02:22:59;;;;;;;10.25;4.72;;;;;;;12.60;96.83;101370.84;4902925;29;20130;-80
2021/09/18 02:25:26;;;;;;;9.43;5.03;;;;;;;12.68;96.97;101377.66;4917784;29;20040;-81
2021/09/18 02:27:52;;;;;;;8.52;5.07;;;;;;;12.52;97.06;101381.16;4884014;29;20098;-81
2021/09/18 02:30:22;;;;;;;6.57;4.57;;;;;;;12.57;97.30;101374.03;4885468;29;21794;-82
2021/09/18 02:32:48;;;;;;;10.52;4.78;;;;;;;12.62;97.65;101374.09;4903086;29;20036;-82
2021/09/18 02:35:16;;;;;;;8.73;5.15;;;;;;;12.70;97.16;101364.78;4903536;29;20036;-81
2021/09/18 02:37:42;;;;;;;8.45;4.80;;;;;;;12.81;96.45;101366.56;4883771;29;20111;-81
2021/09/18 02:40:10;;;;;;;9.32;4.50;;;;;;;12.75;96.58;101359.50;4886163;29;20036;-81
2021/09/18 02:42:37;;;;;;;8.88;4.90;;;;;;;12.69;96.75;101365.84;4898128;29;20127;-81
2021/09/18 02:45:05;;;;;;;6.90;4.93;;;;;;;12.53;97.55;101359.41;4887455;29;20032;-81
2021/09/18 02:47:31;;;;;;;5.47;4.35;;;;;;;12.57;97.72;101355.22;4904331;29;20022;-80
2021/09/18 02:49:56;;;;;;;7.53;4.47;;;;;;;12.60;97.58;101360.09;4886842;29;20037;-80
2021/09/18 02:52:22;;;;;;;7.30;4.40;;;;;;;12.75;96.84;101356.81;4883035;29;20110;-81
2021/09/18 02:54:47;;;;;;;6.97;4.68;;;;;;;12.82;96.48;101365.50;4906395;29;20032;-81
2021/09/18 02:57:13;;;;;;;6.57;4.72;;;;;;;12.69;96.55;101358.59;4888581;29;20040;-81
2021/09/18 02:59:38;;;;;;;8.55;4.32;;;;;;;12.75;96.16;101364.03;4906398;29;20032;-81
2021/09/18 03:02:04;;;;;;;8.02;4.82;;;;;;;12.82;95.91;101368.19;4886746;29;20067;-82
2021/09/18 03:04:33;;;;;;;6.00;4.53;;;;;;;12.74;96.57;101365.91;4906046;29;20072;-81
2021/09/18 03:06:59;;;;;;;7.70;4.65;;;;;;;12.76;96.59;101363.81;4891747;29;20070;-82
2021/09/18 03:09:25;;;;;;;9.40;4.85;;;;;;;12.71;96.60;101369.09;4922641;29;20067;-82
2021/09/18 03:11:50;;;;;;;7.18;4.85;;;;;;;12.70;97.03;101367.47;4890680;29;20105;-82
2021/09/18 03:14:16;;;;;;;6.38;4.57;;;;;;;12.81;96.31;101369.25;4892247;29;20028;-82
2021/09/18 03:16:41;;;;;;;7.85;4.47;;;;;;;12.92;95.54;101370.19;4884938;29;20032;-82
2021/09/18 03:19:07;;;;;;;9.93;4.95;;;;;;;12.86;95.83;101361.25;4890470;29;20032;-82
2021/09/18 03:21:32;;;;;;;8.70;5.22;;;;;;;12.73;97.01;101364.28;4888394;29;20040;-82
2021/09/18 03:23:58;;;;;;;9.27;5.47;;;;;;;12.64;97.57;101363.09;4888665;29;20032;-82
2021/09/18 03:26:23;;;;;;;8.07;5.20;;;;;;;12.80;97.19;101359.56;4890837;29;20051;-81
2021/09/18 03:28:49;;;;;;;10.73;5.32;;;;;;;12.74;97.20;101363.22;4921126;29;20032;-82
2021/09/18 03:31:17;;;;;;;8.75;5.53;;;;;;;12.87;96.65;101356.69;4921932;29;20027;-81
2021/09/18 03:33:43;;;;;;;9.85;5.65;;;;;;;12.89;96.63;101365.31;4889179;29;20394;-82
2021/09/18 03:36:08;;;;;;;11.18;6.47;;;;;;;12.78;97.19;101364.38;4900150;29;20025;-82
2021/09/18 03:38:34;;;;;;;9.50;6.55;;;;;;;12.64;98.08;101360.41;4887441;29;20028;-81
2021/09/18 03:40:59;;;;;;;10.13;6.80;;;;;;;12.68;98.06;101356.97;4903959;29;20039;-81
2021/09/18 03:43:25;;;;;;;13.07;6.20;;;;;;;12.60;98.93;101362.78;4905467;29;20054;-80
2021/09/18 03:45:52;;;;;;;10.20;6.03;;;;;;;12.72;98.26;101362.66;4890677;29;20030;-80
2021/09/18 03:48:18;;;;;;;11.68;6.25;;;;;;;12.78;97.28;101361.69;4889358;29;20028;-80
2021/09/18 03:50:43;;;;;;;9.40;5.95;;;;;;;12.68;98.17;101356.16;4886848;29;20562;-81
2021/09/18 03:53:09;;;;;;;10.57;5.57;;;;;;;12.80;97.68;101358.75;4907194;29;20036;-80
2021/09/18 03:55:34;;;;;;;14.35;5.80;;;;;;;12.79;97.73;101357.13;4884292;29;20111;-80
2021/09/18 03:58:00;;;;;;;11.02;6.13;;;;;;;12.88;97.50;101364.50;4920352;29;20036;-81
2021/09/18 04:00:26;;;;;;;9.82;5.78;;;;;;;12.90;97.48;101375.00;4905834;29;20092;-81
2021/09/18 04:02:51;;;;;;;9.85;5.47;;;;;;;13.00;96.80;101375.16;4891093;29;20065;-82
2021/09/18 04:05:17;;;;;;;13.95;6.20;;;;;;;13.00;96.63;101369.78;4919054;29;20443;-82
2021/09/18 04:07:42;;;;;;;12.50;6.10;;;;;;;12.78;98.59;101369.75;4888561;29;20066;-82
2021/09/18 04:10:10;;;;;;;10.15;5.82;;;;;;;12.76;99.35;101363.81;4889424;29;20031;-82
2021/09/18 04:12:36;;;;;;;10.40;6.57;;;;;;;12.84;98.37;101366.06;4905428;29;20596;-83
2021/09/18 04:15:01;;;;;;;13.10;6.70;;;;;;;12.69;100.00;101365.84;4920013;29;20036;-83
2021/09/18 04:17:27;;;;;;;12.95;7.13;;;;;;;12.72;100.00;101362.66;4905760;29;20035;-83
2021/09/18 04:19:52;;;;;;;17.60;7.32;;;;;;;12.74;100.00;101357.84;4920752;29;20046;-83
2021/09/18 04:22:18;;;;;;;16.42;7.32;;;;;;;12.78;100.00;101367.06;4887114;29;20039;-83
2021/09/18 04:24:44;;;;;;;13.10;7.13;;;;;;;12.76;100.00;101360.31;4906802;29;20103;-82
2021/09/18 04:27:10;;;;;;;13.70;7.32;;;;;;;12.71;100.00;101367.22;4912338;29;20043;-82
2021/09/18 04:29:35;;;;;;;13.25;6.97;;;;;;;12.82;100.00;101372.75;4896949;29;20043;-83
2021/09/18 04:32:01;;;;;;;17.15;7.47;;;;;;;12.74;100.00;101370.47;4924943;29;20031;-82
2021/09/18 04:34:26;;;;;;;15.50;6.97;;;;;;;12.58;100.00;101374.84;4897329;29;20024;-82
2021/09/18 04:36:52;;;;;;;15.32;7.47;;;;;;;12.70;100.00;101376.34;4912652;29;20039;-82
2021/09/18 04:39:18;;;;;;;10.57;6.75;;;;;;;12.81;100.00;101374.63;4890199;29;20134;-82
2021/09/18 04:41:44;;;;;;;13.68;7.40;;;;;;;12.80;100.00;101375.69;4896763;29;20051;-80
2021/09/18 04:44:09;;;;;;;13.52;7.53;;;;;;;12.93;100.00;101378.03;4896594;29;20024;-81
2021/09/18 04:46:35;;;;;;;13.57;7.07;;;;;;;12.94;100.00;101384.22;4896928;29;20250;-80
2021/09/18 04:49:01;;;;;;;13.30;6.70;;;;;;;13.00;100.00;101384.03;4911203;29;20057;-81
2021/09/18 04:51:26;;;;;;;9.48;5.82;;;;;;;13.07;100.00;101385.72;4893887;29;20123;-81
2021/09/18 04:53:52;;;;;;;10.55;6.70;;;;;;;13.14;100.00;101386.38;4905538;29;20036;-81
2021/09/18 04:56:17;;;;;;;13.55;6.40;;;;;;;13.11;100.00;101381.50;4924779;29;20066;-81
2021/09/18 04:58:45;;;;;;;12.82;6.50;;;;;;;13.23;99.79;101374.13;4928711;29;20060;-81
2021/09/18 05:01:10;;;;;;;10.48;6.30;;;;;;;13.08;100.00;101381.97;4900695;29;20024;-81
2021/09/18 05:03:36;;;;;;;11.07;6.30;;;;;;;12.87;100.00;101386.25;4896790;29;20036;-82
2021/09/18 05:06:01;;;;;;;12.95;6.72;;;;;;;12.95;100.00;101388.53;4896712;29;20063;-81
2021/09/18 05:08:27;;;;;;;11.32;6.00;;;;;;;13.04;100.00;101395.09;4897957;29;20028;-80
2021/09/18 05:10:52;;;;;;;8.60;5.15;;;;;;;13.24;100.00;101394.59;4903421;29;20039;-80
2021/09/18 05:13:18;;;;;;;8.65;6.05;;;;;;;13.20;100.00;101383.53;4912528;29;21534;-80
2021/09/18 05:15:43;;;;;;;11.50;6.25;;;;;;;13.10;100.00;101395.97;4895895;29;20040;-81
2021/09/18 05:18:09;;;;;;;7.97;5.75;;;;;;;13.20;100.00;101399.66;4913751;29;20474;-80
2021/09/18 05:20:34;;;;;;;10.48;5.35;;;;;;;13.34;100.00;101391.22;4891266;29;20086;-80
2021/09/18 05:23:00;;;;;;;10.10;6.10;;;;;;;13.44;100.00;101400.22;4927576;29;20036;-80
2021/09/18 05:25:25;;;;;;;11.38;6.10;;;;;;;13.49;99.62;101394.91;4896130;29;20533;-80
2021/09/18 05:27:51;;;;;;;8.93;5.88;;;;;;;13.44;100.00;101396.72;4913387;29;20036;-80
2021/09/18 05:30:17;;;;;;;8.27;5.43;;;;;;;13.46;100.00;101395.41;4906724;29;20030;-80
2021/09/18 05:32:42;;;;;;;10.30;6.72;;;;;;;13.58;99.57;101404.16;4916424;29;20118;-80
2021/09/18 05:35:08;;;;;;;8.82;5.45;;;;;;;13.66;98.98;101408.31;4909592;29;20038;-80
2021/09/18 05:37:33;;;;;;;10.82;5.90;;;;;;;13.73;98.68;101410.78;4897357;29;20042;-80
2021/09/18 05:39:59;;;;;;;7.32;5.53;;;;;;;13.79;98.40;101409.78;4911043;29;20032;-80
2021/09/18 05:42:24;;;;;;;7.70;5.65;;;;;;;13.75;98.65;101420.25;4910517;29;20083;-80
2021/09/18 05:44:50;;;;;;;9.18;5.00;;;;;;;13.84;98.39;101407.16;4909632;29;20106;-81
2021/09/18 05:47:15;;;;;;;7.68;5.22;;;;;;;13.92;97.67;101414.78;4911373;29;20020;-80
2021/09/18 05:49:41;;;;;;;9.00;5.97;;;;;;;13.98;97.87;101416.44;4895978;29;20042;-80
2021/09/18 05:52:07;;;;;;;6.85;5.13;;;;;;;14.05;97.57;101414.38;4886119;29;20107;-80
2021/09/18 05:54:32;;;;;;;8.65;5.80;;;;;;;14.13;97.54;101415.78;4910151;29;20024;-80
2021/09/18 05:56:58;;;;;;;9.32;5.78;;;;;;;14.13;97.52;101418.47;4910931;29;20068;-80
2021/09/18 05:59:23;;;;;;;8.20;5.65;;;;;;;14.10;97.87;101427.06;4896410;29;20032;-80
2021/09/18 06:01:49;;;;;;;9.55;5.78;;;;;;;14.15;97.75;101414.44;4887974;29;20047;-80
2021/09/18 06:04:15;;;;;;;8.05;5.28;;;;;;;14.27;97.08;101427.78;4927787;29;20030;-81
2021/09/18 06:06:41;;;;;;;10.85;6.32;;;;;;;14.37;97.04;101427.06;4903819;29;20413;-81
2021/09/18 06:09:06;;;;;;;9.23;6.72;;;;;;;14.50;96.54;101422.06;4895152;29;20643;-81
2021/09/18 06:11:32;;;;;;;9.77;6.10;;;;;;;14.61;96.34;101417.56;4896163;29;20031;-81
2021/09/18 06:13:57;;;;;;;10.27;6.20;;;;;;;14.74;95.91;101419.84;4926836;29;20205;-81
2021/09/18 06:16:23;;;;;;;7.45;4.70;;;;;;;14.77;95.94;101421.19;4890539;29;20415;-81
2021/09/18 06:18:50;;;;;;;6.35;4.38;;;;;;;14.88;95.40;101422.88;4887868;29;20028;-80
2021/09/18 06:21:16;;;;;;;7.60;3.88;;;;;;;14.98;95.38;101422.13;4912644;29;20157;-80
2021/09/18 06:23:41;;;;;;;4.78;3.63;;;;;;;15.08;94.78;101422.19;4894711;29;20601;-80
2021/09/18 06:26:08;;;;;;;5.53;3.47;;;;;;;15.16;94.89;101427.09;4894624;29;20172;-80
2021/09/18 06:28:33;;;;;;;4.03;3.00;;;;;;;15.34;94.41;101432.03;4925660;29;20020;-80
2021/09/18 06:31:00;;;;;;;7.15;2.92;;;;;;;15.49;93.65;101433.19;4925741;29;20043;-81
2021/09/18 06:33:26;;;;;;;3.38;2.50;;;;;;;15.59;93.10;101435.94;4895267;29;20043;-81
2021/09/18 06:35:51;;;;;;;3.58;2.20;;;;;;;15.64;92.44;101441.38;4913532;29;20048;-81
2021/09/18 06:38:21;;;;;;;5.68;2.65;;;;;;;15.68;92.46;101442.47;4887631;29;20028;-81
2021/09/18 06:40:52;;;;;;;3.55;2.40;;;;;;;15.58;91.92;101443.22;4894211;29;20383;-81
2021/09/18 06:43:19;;;;;;;3.75;2.17;;;;;;;15.72;91.86;101454.38;4913026;29;20555;-81
2021/09/18 06:45:45;;;;;;;3.00;2.17;;;;;;;15.74;91.54;101454.09;4927564;29;20032;-81
2021/09/18 06:48:11;;;;;;;2.58;1.88;;;;;;;15.72;91.68;101454.38;4911786;29;20404;-81
2021/09/18 06:50:37;;;;;;;2.05;1.40;;;;;;;15.78;90.86;101449.78;4912108;29;20047;-81
2021/09/18 06:53:04;;;;;;;3.30;1.50;;;;;;;15.77;91.11;101459.78;4895295;29;20437;-81
2021/09/18 06:55:30;;;;;;;1.75;1.48;;;;;;;15.67;90.55;101459.78;4909524;29;20032;-81
2021/09/18 06:57:56;;;;;;;1.50;1.40;;;;;;;15.61;90.70;101463.50;4892254;29;20470;-80
2021/09/18 07:00:22;;;;;;;2.35;1.10;;;;;;;15.59;90.80;101465.66;4892824;29;21672;-81
2021/09/18 07:02:47;;;;;;;1.50;1.20;;;;;;;15.52;90.99;101465.06;4894755;29;20036;-81
2021/09/18 07:05:13;;;;;;;1.00;0.90;;;;;;;15.47;90.64;101468.56;4890298;29;20079;-81
2021/09/18 07:07:39;;;;;;;1.58;1.17;;;;;;;15.48;90.31;101464.78;4913283;29;20036;-81
2021/09/18 07:10:05;;;;;;;1.13;0.90;;;;;;;15.49;89.90;101474.50;4916952;29;20028;-81
2021/09/18 07:12:30;;;;;;;1.55;0.90;;;;;;;15.58;89.40;101481.03;4913867;29;20028;-81
2021/09/18 07:14:56;;;;;;;1.50;0.80;;;;;;;15.60;89.15;101483.50;4923638;29;20028;-81
2021/09/18 07:17:21;;;;;;;1.30;0.80;;;;;;;15.54;88.95;101485.34;4927605;29;20043;-80
2021/09/18 07:19:47;;;;;;;2.15;1.50;;;;;;;15.53;88.64;101486.41;4913679;29;20402;-80
2021/09/18 07:22:12;;;;;;;2.78;0.93;;;;;;;15.62;88.40;101487.59;4927749;29;20032;-80
2021/09/18 07:24:38;;;;;;;1.08;0.70;;;;;;;15.80;87.40;101489.00;4895471;29;20386;-80
2021/09/18 07:27:04;;;;;;;1.85;0.95;;;;;;;16.04;86.72;101485.81;4889155;29;20083;-80
2021/09/18 07:29:29;;;;;;;1.27;0.60;;;;;;;16.10;85.81;101482.84;4888430;29;20608;-80
2021/09/18 07:31:55;;;;;;;2.67;0.80;;;;;;;16.01;85.86;101495.28;4889977;29;20024;-81
2021/09/18 07:34:21;;;;;;;1.08;0.75;;;;;;;16.07;85.41;101482.59;4904504;29;20031;-80
2021/09/18 07:36:47;;;;;;;1.50;0.85;;;;;;;16.22;84.97;101496.94;4916044;29;20043;-80
2021/09/18 07:39:13;;;;;;;2.15;0.68;;;;;;;16.31;84.08;101494.53;4910961;29;20039;-80
2021/09/18 07:41:38;;;;;;;2.05;0.60;;;;;;;16.40;83.43;101494.81;4899409;29;20118;-81
2021/09/18 07:44:04;;;;;;;1.35;0.65;;;;;;;16.42;82.99;101507.00;4932076;29;20039;-80
2021/09/18 07:46:30;;;;;;;2.28;0.73;;;;;;;16.51;82.84;101510.78;4902492;29;20020;-81
2021/09/18 07:48:58;;;;;;;1.92;0.50;;;;;;;16.56;82.33;101507.28;4893640;29;20744;-80
2021/09/18 07:51:24;;;;;;;2.15;1.08;;;;;;;16.51;81.13;101516.19;4894055;29;20534;-81
2021/09/18 07:53:50;;;;;;;0.40;0.40;;;;;;;16.65;81.02;101515.66;4917957;29;20959;-81
2021/09/18 07:56:16;;;;;;;2.95;0.60;;;;;;;16.67;80.47;101514.34;4930694;29;20031;-80
2021/09/18 07:58:42;;;;;;;0.70;0.70;;;;;;;16.85;79.63;101511.09;4899504;29;20039;-81
2021/09/18 08:01:08;;;;;;;0.80;0.50;;;;;;;17.01;78.64;101511.91;4893403;29;20029;-80
2021/09/18 08:03:34;;;;;;;0.52;0.30;;;;;;;17.03;78.20;101523.25;4918117;29;20054;-80
2021/09/18 08:05:59;;;;;;;0.82;0.38;;;;;;;17.03;77.74;101517.03;4916692;29;21809;-81
2021/09/18 08:08:25;;;;;;;1.85;0.50;;;;;;;17.03;76.62;101525.97;4912497;29;20067;-81
2021/09/18 08:10:51;;;;;;;0.52;0.40;;;;;;;16.98;76.16;101525.16;4900350;29;20115;-80
2021/09/18 08:13:16;;;;;;;0.32;0.28;;;;;;;17.15;76.62;101526.50;4915984;29;20040;-81
2021/09/18 08:15:42;;;;;;;0.90;0.30;;;;;;;17.14;76.31;101524.88;4900649;29;20028;-82
2021/09/18 08:18:07;;;;;;;0.70;0.50;;;;;;;17.18;75.27;101530.56;4902023;29;20478;-80
2021/09/18 08:20:33;;;;;;;0.40;0.40;;;;;;;17.27;75.68;101528.13;4901307;29;20035;-80
2021/09/18 08:22:59;;;;;;;1.00;0.50;;;;;;;17.25;76.02;101533.81;4900708;29;20060;-80
2021/09/18 08:25:24;;;;;;;1.50;0.40;;;;;;;17.45;75.31;101541.09;4891360;29;20031;-80
2021/09/18 08:27:50;;;;;;;0.98;0.47;;;;;;;17.49;74.42;101542.16;4895237;29;20036;-81
2021/09/18 08:30:16;;;;;;;0.82;0.38;;;;;;;17.60;73.79;101546.47;4893468;29;20032;-80
2021/09/18 08:32:42;;;;;;;0.45;0.40;;;;;;;17.61;72.32;101558.94;4916350;29;20036;-80
2021/09/18 08:35:09;;;;;;;2.00;0.70;;;;;;;17.55;72.10;101551.88;4913518;29;20035;-81
2021/09/18 08:37:34;;;;;;;0.47;0.30;;;;;;;17.57;71.32;101560.53;4921897;29;20534;-82
2021/09/18 08:40:00;;;;;;;1.60;0.40;;;;;;;17.44;71.85;101558.44;4888250;29;20123;-82
2021/09/18 08:42:26;;;;;;;0.90;0.40;;;;;;;17.17;72.15;101572.25;4913204;29;20025;-81
2021/09/18 08:44:52;;;;;;;0.45;0.40;;;;;;;17.21;71.82;101568.72;4895603;29;20446;-82
2021/09/18 08:47:21;;;;;;;0.40;0.40;;;;;;;17.13;71.82;101569.28;4882886;29;20029;-82
2021/09/18 08:49:47;;;;;;;2.45;0.50;;;;;;;16.97;71.86;101577.69;4891263;29;20402;-82
2021/09/18 08:52:12;;;;;;;0.70;0.40;;;;;;;17.17;71.14;101573.06;4906641;29;20033;-82
2021/09/18 08:54:40;;;;;;;1.55;0.40;;;;;;;17.24;71.00;101582.84;4921259;29;20394;-82
2021/09/18 08:57:06;;;;;;;1.85;0.50;;;;;;;17.30;71.05;101574.44;4884021;29;20039;-82
2021/09/18 08:59:36;;;;;;;0.43;0.40;;;;;;;17.36;71.07;101577.94;4885415;29;20036;-82
2021/09/18 09:02:15;;;;;;;1.60;0.50;;;;;;;17.53;69.77;101581.97;4911439;29;20036;-82
2021/09/18 09:04:42;;;;;;;0.95;0.40;;;;;;;17.62;69.99;101584.94;4899201;29;20068;-82
2021/09/18 09:07:11;;;;;;;0.73;0.60;;;;;;;17.80;69.87;101578.16;4910714;29;20394;-82
2021/09/18 09:09:55;;;;;;;0.80;0.40;;;;;;;17.92;67.91;101588.66;4884786;29;20063;-80
2021/09/18 09:12:39;;;;;;;1.00;0.50;;;;;;;18.00;66.89;101583.50;4891897;29;20143;-80
2021/09/18 09:15:08;;;;;;;1.98;0.50;;;;;;;18.32;66.69;101583.09;4907859;29;20095;-80
2021/09/18 09:17:38;;;;;;;1.35;0.55;;;;;;;18.42;66.04;101580.28;4921597;29;20028;-79
2021/09/18 09:20:05;;;;;;;2.78;0.80;;;;;;;18.48;65.10;101586.50;4884658;29;20489;-81
2021/09/18 09:22:57;;;;;;;2.75;0.70;;;;;;;18.36;64.35;101595.00;4888693;29;20047;-82
2021/09/18 09:25:36;;;;;;;0.60;0.60;;;;;;;18.15;65.29;101598.91;4903697;29;20044;-82
2021/09/18 09:28:33;;;;;;;1.52;0.65;;;;;;;17.92;66.08;101599.50;4897265;29;20054;-82
2021/09/18 09:31:24;;;;;;;3.80;0.80;;;;;;;17.72;66.43;101603.09;4907844;29;20537;-81
2021/09/18 09:34:14;;;;;;;0.73;0.70;;;;;;;17.58;66.32;101600.09;4899709;29;20035;-81
2021/09/18 09:36:41;;;;;;;0.95;0.77;;;;;;;17.47;67.42;101593.91;4884349;29;20048;-81
2021/09/18 09:39:09;;;;;;;2.60;0.90;;;;;;;17.48;68.04;101600.13;4919718;29;20423;-81
2021/09/18 09:41:38;;;;;;;2.00;0.93;;;;;;;17.28;67.93;101605.56;4906410;29;20038;-81
2021/09/18 09:44:12;;;;;;;1.30;0.70;;;;;;;17.08;67.66;101609.09;4919279;29;20020;-82
2021/09/18 09:46:38;;;;;;;1.42;0.60;;;;;;;16.89;68.38;101609.63;4899121;29;20044;-81
2021/09/18 09:49:15;;;;;;;1.92;0.80;;;;;;;16.56;69.46;101621.72;4887949;29;20028;-82
2021/09/18 09:51:42;;;;;;;1.80;0.80;;;;;;;16.53;70.08;101624.97;4892960;29;20028;-81
2021/09/18 09:54:17;;;;;;;1.08;0.63;;;;;;;16.37;71.06;101634.09;4926258;29;20024;-81
2021/09/18 09:56:42;;;;;;;;;;;;;;;15.91;73.97;101642.00;4908498;29;20078;-81
2021/09/18 09:59:08;;;;;;;3.90;0.70;;;;;;;16.07;73.54;101640.19;4896339;29;19958;-81
2021/09/18 10:01:34;;;;;;;1.33;0.80;;;;;;;15.76;75.64;101644.59;4895565;29;20032;-81
2021/09/18 10:04:01;;;;;;;3.38;0.88;;;;;;;15.69;76.67;101654.81;4906967;29;20036;-82
2021/09/18 10:06:28;;;;;;;1.95;0.98;;;;;;;15.47;77.72;101648.69;4881862;29;20135;-82
2021/09/18 10:08:56;;;;;;;1.75;0.90;;;;;;;15.36;78.46;101656.72;4904630;29;20094;-82
2021/09/18 10:11:24;;;;;;;2.80;1.20;;;;;;;15.43;77.95;101653.78;4879984;29;20542;-81
2021/09/18 10:13:52;;;;;;;3.53;1.00;;;;;;;15.50;77.86;101657.09;4889543;29;20032;-81
2021/09/18 10:16:18;;;;;;;1.23;0.95;;;;;;;15.65;76.86;101651.84;4880677;29;20021;-81
2021/09/18 10:18:44;;;;;;;2.10;1.00;;;;;;;15.80;76.69;101650.28;4922095;29;20024;-81
2021/09/18 10:23:56;;;;;;;1.00;0.90;;;;;;;16.26;74.80;101659.47;4906067;29;20149;-82
2021/09/18 10:26:22;;;;;;;1.35;1.13;;;;;;;16.59;74.07;101647.41;4889771;29;20032;-82
2021/09/18 10:28:48;;;;;;;1.63;1.30;;;;;;;17.05;72.64;101645.63;4880148;29;20402;-81
2021/09/18 10:31:21;;;;;;;3.72;1.30;;;;;;;17.70;70.29;101644.03;4880359;29;20039;-81
2021/09/18 10:33:52;;;;;;;2.47;1.00;;;;;;;18.24;68.68;101648.75;4917868;29;20079;-82
2021/09/18 10:36:40;;;;;;;1.80;1.20;;;;;;;18.21;67.58;101652.03;4919597;29;20062;-81
2021/09/18 10:39:11;;;;;;;6.63;1.30;;;;;;;17.91;66.86;101643.97;4880774;29;20028;-81
2021/09/18 10:41:42;;;;;;;2.08;1.20;;;;;;;17.48;66.94;101654.31;4919479;29;20293;-82
2021/09/18 10:44:08;;;;;;;1.77;1.40;;;;;;;17.28;67.94;101655.16;4901235;29;20287;-82
2021/09/18 10:46:46;;;;;;;2.25;1.08;;;;;;;17.14;68.28;101654.84;4889894;29;20080;-81
2021/09/18 10:49:34;;;;;;;1.75;1.00;;;;;;;16.71;68.85;101661.56;4921749;29;20040;-82
2021/09/18 10:52:22;;;;;;;2.83;1.60;;;;;;;16.69;70.31;101668.28;4917410;29;20091;-81
2021/09/18 10:55:05;;;;;;;4.13;1.60;;;;;;;16.56;70.28;101683.13;4918277;29;20027;-81
2021/09/18 10:57:42;;;;;;;1.48;1.08;;;;;;;16.44;70.07;101675.22;4921749;29;20380;-82
2021/09/18 11:00:08;;;;;;;3.08;1.30;;;;;;;16.61;68.89;101677.72;4905164;29;20123;-81
2021/09/18 11:02:34;;;;;;;1.80;1.50;;;;;;;16.62;69.47;101677.47;4900303;29;20092;-81
2021/09/18 11:05:02;;;;;;;1.38;1.10;;;;;;;16.60;69.19;101678.81;4913902;29;20032;-81
2021/09/18 11:07:39;;;;;;;2.03;1.20;;;;;;;16.53;68.00;101683.66;4897748;29;20236;-81
2021/09/18 11:10:10;;;;;;;4.88;1.50;;;;;;;16.56;68.46;101686.66;4916789;29;20040;-82
2021/09/18 11:12:36;;;;;;;3.53;1.23;;;;;;;16.60;68.27;101689.63;4902042;29;20036;-81
2021/09/18 11:15:04;;;;;;;2.20;1.40;;;;;;;16.48;69.16;101689.03;4902802;29;20039;-81
2021/09/18 11:17:31;;;;;;;4.13;1.42;;;;;;;16.41;69.68;101694.69;4921809;29;20498;-81
2021/09/18 11:20:14;;;;;;;3.33;1.30;;;;;;;16.54;69.13;101693.41;4883138;29;20024;-81
2021/09/18 11:22:41;;;;;;;1.63;1.20;;;;;;;16.66;68.93;101691.25;4909319;29;20032;-81
2021/09/18 11:25:44;;;;;;;1.95;1.30;;;;;;;16.63;67.90;101695.31;4928382;29;20146;-81
2021/09/18 11:28:14;;;;;;;3.55;1.60;;;;;;;16.66;68.67;101690.44;4892912;29;20047;-81